createdAt,value
2022-11-28T00:01:21.305Z,10.03
2022-11-28T00:03:48.121Z,9.30
2022-11-28T00:06:15.070Z,9.17
2022-11-28T00:08:41.626Z,9.13
2022-11-28T00:11:11.119Z,8.50
2022-11-28T00:13:38.096Z,8.77
2022-11-28T00:16:07.440Z,8.50
2022-11-28T00:18:34.476Z,9.37
2022-11-28T00:21:03.353Z,8.87
2022-11-28T00:23:30.343Z,8.47
2022-11-28T00:25:59.384Z,9.77
2022-11-28T00:28:25.809Z,9.80
2022-11-28T00:30:52.247Z,9.80
2022-11-28T00:33:18.985Z,8.77
2022-11-28T00:35:45.423Z,8.97
2022-11-28T00:38:11.936Z,8.97
2022-11-28T00:40:38.467Z,10.40
2022-11-28T00:43:05.023Z,9.63
2022-11-28T00:45:31.457Z,9.87
2022-11-28T00:47:58.055Z,10.00
2022-11-28T00:50:24.743Z,10.67
2022-11-28T00:52:51.154Z,10.07
2022-11-28T00:55:17.728Z,10.53
2022-11-28T00:57:44.166Z,9.50
2022-11-28T01:00:10.986Z,9.47
2022-11-28T01:02:37.430Z,10.23
2022-11-28T01:05:04.071Z,10.30
2022-11-28T01:07:33.534Z,10.13
2022-11-28T01:09:59.991Z,8.53
2022-11-28T01:12:26.388Z,10.43
2022-11-28T01:14:53.951Z,10.00
2022-11-28T01:17:20.366Z,10.07
2022-11-28T01:19:46.855Z,9.83
2022-11-28T01:22:14.283Z,10.00
2022-11-28T01:24:40.992Z,9.90
2022-11-28T01:27:08.244Z,10.30
2022-11-28T01:29:34.681Z,10.63
2022-11-28T01:32:01.123Z,10.83
2022-11-28T01:34:27.549Z,10.50
2022-11-28T01:36:53.976Z,11.50
2022-11-28T01:39:20.354Z,10.67
2022-11-28T01:41:46.766Z,10.87
2022-11-28T01:44:13.147Z,11.30
2022-11-28T01:46:40.103Z,11.27
2022-11-28T01:49:15.119Z,10.00
2022-11-28T01:51:48.951Z,10.97
2022-11-28T01:54:18.838Z,10.73
2022-11-28T01:56:51.160Z,9.97
2022-11-28T01:59:19.449Z,12.13
2022-11-28T02:01:46.289Z,10.77
2022-11-28T02:04:14.142Z,10.97
2022-11-28T02:06:42.090Z,10.20
2022-11-28T02:09:13.888Z,10.23
2022-11-28T02:12:09.771Z,11.07
2022-11-28T02:14:56.440Z,10.03
2022-11-28T02:17:57.664Z,10.20
2022-11-28T02:20:51.575Z,10.30
2022-11-28T02:23:23.862Z,9.27
2022-11-28T02:26:14.492Z,10.73
2022-11-28T02:28:55.984Z,11.10
2022-11-28T02:32:04.098Z,10.00
2022-11-28T02:34:46.924Z,9.70
2022-11-28T02:37:45.965Z,10.10
2022-11-28T02:40:25.460Z,9.47
2022-11-28T02:43:01.034Z,9.10
2022-11-28T02:45:53.563Z,9.53
2022-11-28T02:48:26.980Z,9.87
2022-11-28T02:51:05.910Z,8.77
2022-11-28T02:53:34.130Z,7.73
2022-11-28T02:56:01.109Z,7.83
2022-11-28T02:58:27.590Z,9.97
2022-11-28T03:00:56.197Z,9.40
2022-11-28T03:03:33.734Z,9.90
2022-11-28T03:06:09.740Z,8.57
2022-11-28T03:08:43.031Z,8.40
2022-11-28T03:11:23.007Z,8.33
2022-11-28T03:13:54.741Z,8.63
2022-11-28T03:16:31.129Z,8.77
2022-11-28T03:19:28.777Z,9.73
2022-11-28T03:22:10.157Z,7.90
2022-11-28T03:25:09.325Z,8.23
2022-11-28T03:27:42.877Z,7.87
2022-11-28T03:30:19.596Z,8.80
2022-11-28T03:32:51.018Z,7.93
2022-11-28T03:35:21.338Z,8.50
2022-11-28T03:37:53.367Z,9.43
2022-11-28T03:40:26.419Z,8.83
2022-11-28T03:43:03.912Z,8.77
2022-11-28T03:45:36.904Z,8.43
2022-11-28T03:48:10.097Z,9.10
2022-11-28T03:51:01.725Z,8.97
2022-11-28T03:53:35.842Z,9.10
2022-11-28T03:56:09.294Z,9.83
2022-11-28T03:58:44.414Z,8.13
2022-11-28T04:01:36.198Z,9.87
2022-11-28T04:04:31.800Z,10.50
2022-11-28T04:07:04.143Z,9.13
2022-11-28T04:09:45.450Z,9.93
2022-11-28T04:12:50.619Z,10.40
2022-11-28T04:15:41.440Z,9.73
2022-11-28T04:18:21.131Z,10.43
2022-11-28T04:20:59.594Z,9.03
2022-11-28T04:23:27.926Z,10.87
2022-11-28T04:26:01.490Z,11.53
2022-11-28T04:28:31.726Z,9.97
2022-11-28T04:31:01.176Z,10.30
2022-11-28T04:33:31.739Z,10.77
2022-11-28T04:35:59.631Z,11.20
2022-11-28T04:38:29.768Z,10.17
2022-11-28T04:41:13.378Z,10.33
2022-11-28T04:43:44.372Z,9.83
2022-11-28T04:46:16.176Z,10.37
2022-11-28T04:48:43.137Z,10.47
2022-11-28T04:51:40.624Z,9.40
2022-11-28T04:54:25.403Z,8.90
2022-11-28T04:57:28.096Z,9.70
2022-11-28T04:59:56.000Z,8.60
2022-11-28T05:02:24.233Z,10.57
2022-11-28T05:04:55.495Z,9.53
2022-11-28T05:07:22.129Z,8.93
2022-11-28T05:09:48.630Z,9.60
2022-11-28T05:12:15.018Z,10.13
2022-11-28T05:14:41.642Z,9.67
2022-11-28T05:17:08.485Z,10.17
2022-11-28T05:19:34.901Z,10.03
2022-11-28T05:22:01.294Z,11.33
2022-11-28T05:24:32.080Z,11.43
2022-11-28T05:26:58.904Z,9.60
2022-11-28T05:29:25.739Z,10.43
2022-11-28T05:31:52.305Z,12.27
2022-11-28T05:34:18.854Z,11.23
2022-11-28T05:36:45.289Z,9.67
2022-11-28T05:39:11.737Z,11.30
2022-11-28T05:41:38.172Z,11.43
2022-11-28T05:44:04.658Z,11.07
2022-11-28T05:46:31.189Z,11.67
2022-11-28T05:48:57.771Z,11.73
2022-11-28T05:51:24.517Z,12.07
2022-11-28T05:53:50.931Z,13.33
2022-11-28T05:56:18.916Z,12.03
2022-11-28T05:58:45.822Z,11.30
2022-11-28T06:01:17.721Z,11.50
2022-11-28T06:03:44.368Z,12.87
2022-11-28T06:06:13.870Z,14.17
2022-11-28T06:08:40.901Z,12.83
2022-11-28T06:11:07.842Z,12.90
2022-11-28T06:13:34.644Z,14.60
2022-11-28T06:16:01.085Z,13.10
2022-11-28T06:18:27.654Z,14.90
2022-11-28T06:20:54.371Z,13.43
2022-11-28T06:23:20.761Z,14.23
2022-11-28T06:25:47.215Z,14.60
2022-11-28T06:28:13.609Z,14.07
2022-11-28T06:30:39.993Z,16.80
2022-11-28T06:33:06.395Z,14.40
2022-11-28T06:35:32.871Z,13.93
2022-11-28T06:37:59.361Z,13.27
2022-11-28T06:40:25.746Z,14.80
2022-11-28T06:42:52.185Z,13.73
2022-11-28T06:45:19.016Z,15.03
2022-11-28T06:47:45.427Z,14.30
2022-11-28T06:50:12.104Z,13.87
2022-11-28T06:52:38.549Z,14.50
2022-11-28T06:55:05.346Z,14.30
2022-11-28T06:57:32.719Z,16.20
2022-11-28T06:59:59.212Z,15.93
2022-11-28T07:02:27.547Z,15.37
2022-11-28T07:04:54.051Z,14.63
2022-11-28T07:07:20.543Z,19.73
2022-11-28T07:09:46.960Z,15.93
2022-11-28T07:12:14.391Z,17.80
2022-11-28T07:14:40.809Z,17.27
2022-11-28T07:17:07.260Z,17.47
2022-11-28T07:19:34.371Z,16.90
2022-11-28T07:22:00.942Z,16.03
2022-11-28T07:24:27.610Z,20.53
2022-11-28T07:26:54.014Z,17.30
2022-11-28T07:29:20.499Z,19.07
2022-11-28T07:31:47.035Z,17.40
2022-11-28T07:34:13.552Z,17.90
2022-11-28T07:36:40.029Z,17.73
2022-11-28T07:39:11.322Z,17.87
2022-11-28T07:41:37.841Z,19.20
2022-11-28T07:44:05.079Z,17.67
2022-11-28T07:46:33.244Z,17.90
2022-11-28T07:49:00.301Z,16.93
2022-11-28T07:51:29.810Z,17.63
2022-11-28T07:53:56.534Z,17.20
2022-11-28T07:56:35.020Z,20.37
2022-11-28T07:59:10.995Z,18.33
2022-11-28T08:01:37.557Z,19.33
2022-11-28T08:04:07.642Z,18.80
2022-11-28T08:06:38.359Z,18.20
2022-11-28T08:09:06.954Z,17.93
2022-11-28T08:11:34.148Z,19.30
2022-11-28T08:14:00.921Z,18.57
2022-11-28T08:16:29.370Z,18.43
2022-11-28T08:18:59.674Z,18.30
2022-11-28T08:21:29.378Z,18.70
2022-11-28T08:24:00.108Z,22.00
2022-11-28T08:26:30.552Z,19.87
2022-11-28T08:28:58.866Z,18.37
2022-11-28T08:31:30.155Z,21.20
2022-11-28T08:33:58.813Z,20.87
2022-11-28T08:36:29.011Z,20.27
2022-11-28T08:41:42.788Z,19.63
2022-11-28T08:44:09.223Z,19.37
2022-11-28T08:46:36.306Z,21.43
2022-11-28T08:49:04.556Z,19.07
2022-11-28T08:51:31.931Z,19.00
2022-11-28T08:53:59.724Z,19.07
2022-11-28T08:56:27.024Z,18.27
2022-11-28T08:58:53.461Z,21.40
2022-11-28T09:01:22.864Z,19.13
2022-11-28T09:03:49.641Z,20.47
2022-11-28T09:06:17.083Z,20.33
2022-11-28T09:08:43.726Z,21.97
2022-11-28T09:11:12.681Z,21.10
2022-11-28T09:13:39.139Z,20.47
2022-11-28T09:16:06.253Z,21.03
2022-11-28T09:18:32.978Z,20.73
2022-11-28T09:21:11.618Z,21.37
2022-11-28T09:23:40.888Z,20.17
2022-11-28T09:26:09.200Z,24.60
2022-11-28T09:28:35.609Z,20.90
2022-11-28T09:31:04.276Z,22.53
2022-11-28T09:33:30.879Z,23.67
2022-11-28T09:35:58.300Z,20.83
2022-11-28T09:38:26.009Z,23.17
2022-11-28T09:40:52.817Z,21.07
2022-11-28T09:43:42.622Z,22.13
2022-11-28T09:46:14.826Z,20.40
2022-11-28T09:48:54.647Z,21.73
2022-11-28T09:51:51.992Z,18.53
2022-11-28T09:54:52.422Z,22.00
2022-11-28T09:57:29.919Z,20.87
2022-11-28T09:59:56.394Z,19.43
2022-11-28T10:02:39.702Z,20.80
2022-11-28T10:05:24.711Z,20.67
2022-11-28T10:08:01.914Z,21.10
2022-11-28T10:10:41.336Z,21.13
2022-11-28T10:14:06.124Z,20.77
2022-11-28T10:16:36.528Z,20.23
2022-11-28T10:19:20.624Z,20.07
2022-11-28T10:22:00.657Z,19.00
2022-11-28T10:24:44.672Z,20.63
2022-11-28T10:27:14.414Z,20.60
2022-11-28T10:29:52.127Z,19.87
2022-11-28T10:32:31.454Z,19.40
2022-11-28T10:35:11.904Z,19.73
2022-11-28T10:37:38.976Z,19.23
2022-11-28T10:40:27.606Z,20.10
2022-11-28T10:43:01.868Z,18.73
2022-11-28T10:45:53.244Z,19.13
2022-11-28T10:48:40.622Z,20.90
2022-11-28T10:51:55.225Z,19.60
2022-11-28T10:54:43.620Z,20.17
2022-11-28T10:57:35.899Z,16.93
2022-11-28T11:00:20.034Z,19.33
2022-11-28T11:02:52.018Z,18.53
2022-11-28T11:05:26.915Z,18.53
2022-11-28T11:08:11.557Z,19.80
2022-11-28T11:10:41.446Z,20.40
2022-11-28T11:13:20.512Z,18.83
2022-11-28T11:15:51.571Z,19.83
2022-11-28T11:18:26.579Z,19.73
2022-11-28T11:21:23.855Z,18.53
2022-11-28T11:24:12.051Z,19.17
2022-11-28T11:26:43.510Z,18.57
2022-11-28T11:29:29.245Z,18.30
2022-11-28T11:31:56.154Z,16.83
2022-11-28T11:34:24.249Z,18.67
2022-11-28T11:36:51.591Z,17.23
2022-11-28T11:39:23.783Z,18.27
2022-11-28T11:42:11.911Z,17.37
2022-11-28T11:44:38.569Z,18.00
2022-11-28T11:47:10.362Z,16.43
2022-11-28T11:49:48.696Z,18.97
2022-11-28T11:52:22.760Z,17.63
2022-11-28T11:55:13.279Z,18.57
2022-11-28T11:57:46.422Z,17.97
2022-11-28T12:00:23.895Z,16.00
2022-11-28T12:03:00.682Z,16.53
2022-11-28T12:05:59.365Z,16.27
2022-11-28T12:08:35.223Z,16.47
2022-11-28T12:11:17.388Z,16.37
2022-11-28T12:13:44.288Z,15.30
2022-11-28T12:16:37.131Z,15.90
2022-11-28T12:19:33.812Z,15.93
2022-11-28T12:22:17.214Z,15.27
2022-11-28T12:25:08.698Z,15.57
2022-11-28T12:27:55.809Z,14.90
2022-11-28T12:30:49.478Z,14.60
2022-11-28T12:33:25.522Z,14.43
2022-11-28T12:36:19.967Z,15.63
2022-11-28T12:38:59.261Z,13.97
2022-11-28T12:41:40.605Z,13.23
2022-11-28T12:44:38.679Z,12.63
2022-11-28T12:47:13.993Z,12.60
2022-11-28T12:50:09.069Z,12.70
2022-11-28T12:52:50.541Z,12.43
2022-11-28T12:55:16.869Z,12.03
2022-11-28T12:57:53.611Z,12.67
2022-11-28T13:00:26.077Z,12.87
2022-11-28T13:03:20.084Z,11.43
2022-11-28T13:06:31.013Z,11.23
2022-11-28T13:09:22.310Z,11.10
2022-11-28T13:12:22.887Z,10.73
2022-11-28T13:14:56.654Z,9.77
2022-11-28T13:17:31.811Z,10.60
2022-11-28T13:20:19.176Z,10.73
2022-11-28T13:22:53.462Z,10.70
2022-11-28T13:25:44.555Z,10.50
2022-11-28T13:28:13.695Z,10.10
2022-11-28T13:31:19.091Z,9.37
2022-11-28T13:33:51.600Z,10.40
2022-11-28T13:39:42.274Z,10.73
2022-11-28T13:42:58.924Z,12.73
2022-11-28T13:45:25.159Z,9.93
2022-11-28T13:49:06.043Z,9.67
2022-11-28T13:51:30.993Z,9.00
2022-11-28T13:54:17.488Z,10.47
2022-11-28T13:57:04.054Z,13.10
2022-11-28T13:59:31.765Z,11.37
2022-11-28T14:02:01.931Z,11.03
2022-11-28T14:04:31.080Z,12.47
2022-11-28T14:07:07.416Z,12.00
2022-11-28T14:09:54.889Z,12.10
2022-11-28T14:12:55.818Z,8.90
2022-11-28T14:15:54.437Z,9.33
2022-11-28T14:18:58.636Z,10.63
2022-11-28T14:21:38.878Z,9.57
2022-11-28T14:24:11.097Z,11.33
2022-11-28T14:26:40.657Z,9.87
2022-11-28T14:29:20.194Z,10.47
2022-11-28T14:32:13.730Z,9.93
2022-11-28T14:34:45.813Z,9.20
2022-11-28T14:37:21.905Z,9.87
2022-11-28T14:39:49.774Z,8.83
2022-11-28T14:42:36.724Z,11.27
2022-11-28T14:45:23.811Z,10.33
2022-11-28T14:48:15.644Z,14.13
2022-11-28T14:50:42.027Z,11.73
2022-11-28T14:53:36.385Z,9.60
2022-11-28T14:56:15.108Z,11.17
2022-11-28T14:58:48.889Z,10.60
2022-11-28T15:01:59.293Z,10.10
2022-11-28T15:04:31.582Z,10.10
2022-11-28T15:06:59.992Z,11.10
2022-11-28T15:09:52.115Z,10.97
2022-11-28T15:12:31.609Z,10.90
2022-11-28T15:14:58.611Z,10.03
2022-11-28T15:17:32.455Z,10.67
2022-11-28T15:20:04.421Z,10.03
2022-11-28T15:22:41.887Z,11.77
2022-11-28T15:25:23.919Z,10.27
2022-11-28T15:27:50.895Z,12.20
2022-11-28T15:30:19.768Z,10.87
2022-11-28T15:32:47.474Z,11.70
2022-11-28T15:35:17.429Z,10.57
2022-11-28T15:37:50.586Z,10.73
2022-11-28T15:40:28.905Z,10.23
2022-11-28T15:42:55.602Z,10.43
2022-11-28T15:45:25.456Z,10.60
2022-11-28T15:47:53.502Z,9.53
2022-11-28T15:50:25.013Z,9.83
2022-11-28T15:52:58.300Z,9.73
2022-11-28T15:55:27.668Z,10.07
2022-11-28T15:58:15.903Z,9.73
2022-11-28T16:00:45.639Z,10.07
2022-11-28T16:03:22.640Z,11.07
2022-11-28T16:05:52.530Z,10.10
2022-11-28T16:08:29.743Z,9.90
2022-11-28T16:10:57.851Z,10.03
2022-11-28T16:13:24.970Z,10.17
2022-11-28T16:15:56.031Z,9.63
2022-11-28T16:18:24.553Z,9.90
2022-11-28T16:20:51.102Z,10.23
2022-11-28T16:23:28.328Z,10.30
2022-11-28T16:26:27.898Z,9.77
2022-11-28T16:29:07.913Z,9.83
2022-11-28T16:31:34.936Z,9.17
2022-11-28T16:34:02.077Z,10.37
2022-11-28T16:36:35.768Z,11.40
2022-11-28T16:39:14.429Z,8.80
2022-11-28T16:41:54.919Z,9.60
2022-11-28T16:44:24.806Z,11.83
2022-11-28T16:46:54.654Z,10.63
2022-11-28T16:49:36.357Z,11.37
2022-11-28T16:52:20.966Z,11.10
2022-11-28T16:54:51.968Z,10.10
2022-11-28T16:57:20.230Z,9.10
2022-11-28T16:59:48.665Z,9.10
2022-11-28T17:02:20.983Z,9.17
2022-11-28T17:04:49.687Z,8.50
2022-11-28T17:07:19.308Z,9.23
2022-11-28T17:09:47.679Z,8.30
2022-11-28T17:12:23.863Z,9.17
2022-11-28T17:14:50.673Z,9.27
2022-11-28T17:17:18.630Z,10.20
2022-11-28T17:19:46.803Z,8.50
2022-11-28T17:22:16.550Z,9.37
2022-11-28T17:24:43.389Z,8.60
2022-11-28T17:27:12.613Z,8.33
2022-11-28T17:29:39.159Z,8.80
2022-11-28T17:32:06.567Z,8.07
2022-11-28T17:34:36.185Z,7.33
2022-11-28T17:37:03.262Z,8.67
2022-11-28T17:39:29.828Z,7.13
2022-11-28T17:41:57.301Z,8.43
2022-11-28T17:44:25.948Z,8.53
2022-11-28T17:46:54.016Z,8.33
2022-11-28T17:49:20.828Z,8.77
2022-11-28T17:51:47.263Z,8.23
2022-11-28T17:54:16.693Z,8.67
2022-11-28T17:56:48.166Z,7.60
2022-11-28T17:59:20.518Z,8.20
2022-11-28T18:01:47.765Z,7.50
2022-11-28T18:04:14.429Z,7.97
2022-11-28T18:06:45.592Z,7.67
2022-11-28T18:09:13.005Z,7.23
2022-11-28T18:11:40.437Z,7.70
2022-11-28T18:14:06.844Z,7.20
2022-11-28T18:16:35.496Z,7.27
2022-11-28T18:19:02.056Z,8.00
2022-11-28T18:21:28.485Z,8.37
2022-11-28T18:23:54.896Z,7.90
2022-11-28T18:26:23.982Z,8.63
2022-11-28T18:28:51.002Z,7.77
2022-11-28T18:31:21.292Z,7.97
2022-11-28T18:33:48.438Z,9.83
2022-11-28T18:36:27.056Z,11.37
2022-11-28T18:39:02.521Z,11.33
2022-11-28T18:41:29.673Z,10.27
2022-11-28T18:43:58.308Z,12.33
2022-11-28T18:46:25.320Z,11.87
2022-11-28T18:48:52.126Z,12.90
2022-11-28T18:51:25.694Z,10.07
2022-11-28T18:53:53.390Z,10.83
2022-11-28T18:56:20.768Z,13.97
2022-11-28T18:58:49.621Z,17.07
2022-11-28T19:01:22.055Z,9.93
2022-11-28T19:03:55.037Z,13.37
2022-11-28T19:06:22.246Z,15.43
2022-11-28T19:08:52.094Z,15.60
2022-11-28T19:11:18.698Z,15.93
2022-11-28T19:13:47.016Z,18.53
2022-11-28T19:16:15.390Z,13.20
2022-11-28T19:18:43.239Z,15.97
2022-11-28T19:21:13.129Z,22.17
2022-11-28T19:23:41.596Z,21.00
2022-11-28T19:26:11.048Z,20.90
2022-11-28T19:28:39.282Z,21.50
2022-11-28T19:31:07.471Z,17.47
2022-11-28T19:33:34.013Z,21.53
2022-11-28T19:36:05.935Z,17.17
2022-11-28T19:38:34.478Z,22.73
2022-11-28T19:41:15.674Z,21.40
2022-11-28T19:43:42.704Z,20.30
2022-11-28T19:46:11.039Z,21.57
2022-11-28T19:48:38.809Z,21.93
2022-11-28T19:51:06.155Z,23.73
2022-11-28T19:53:34.262Z,21.13
2022-11-28T19:56:08.985Z,22.07
2022-11-28T19:58:36.104Z,21.87
2022-11-28T20:01:07.698Z,21.20
2022-11-28T20:03:35.653Z,20.03
2022-11-28T20:06:02.301Z,21.97
2022-11-28T20:08:29.111Z,20.37
2022-11-28T20:10:55.542Z,16.70
2022-11-28T20:13:21.998Z,18.97
2022-11-28T20:15:48.574Z,18.93
2022-11-28T20:18:15.076Z,20.23
2022-11-28T20:20:41.633Z,22.03
2022-11-28T20:23:08.123Z,22.53
2022-11-28T20:25:34.570Z,22.10
2022-11-28T20:28:01.023Z,20.17
2022-11-28T20:30:27.551Z,19.67
2022-11-28T20:32:54.652Z,23.23
2022-11-28T20:35:23.214Z,22.50
2022-11-28T20:37:50.443Z,23.83
2022-11-28T20:40:16.983Z,19.23
2022-11-28T20:42:44.528Z,23.67
2022-11-28T20:45:11.342Z,22.67
2022-11-28T20:47:37.837Z,21.60
2022-11-28T20:50:06.471Z,23.97
2022-11-28T20:52:32.882Z,19.80
2022-11-28T20:54:59.322Z,19.40
2022-11-28T20:57:26.499Z,20.30
2022-11-28T20:59:56.645Z,21.70
2022-11-28T21:02:23.793Z,22.87
2022-11-28T21:04:50.327Z,21.33
2022-11-28T21:07:16.772Z,22.40
2022-11-28T21:09:43.563Z,24.10
2022-11-28T21:12:10.115Z,23.20
2022-11-28T21:14:36.492Z,22.90
2022-11-28T21:17:02.993Z,23.43
2022-11-28T21:19:29.797Z,23.50
2022-11-28T21:21:56.274Z,21.70
2022-11-28T21:24:22.709Z,21.40
2022-11-28T21:26:53.575Z,21.13
2022-11-28T21:29:21.576Z,23.00
2022-11-28T21:31:48.155Z,20.27
2022-11-28T21:34:15.575Z,21.73
2022-11-28T21:36:42.851Z,21.87
2022-11-28T21:39:14.867Z,22.00
2022-11-28T21:41:41.783Z,20.57
2022-11-28T21:44:08.493Z,20.80
2022-11-28T21:46:34.911Z,20.63
2022-11-28T21:49:01.920Z,19.03
2022-11-28T21:51:28.839Z,19.77
2022-11-28T21:53:57.298Z,21.20
2022-11-28T21:56:24.074Z,21.30
2022-11-28T21:58:51.653Z,22.93
2022-11-28T22:01:21.059Z,19.17
2022-11-28T22:03:47.753Z,17.53
2022-11-28T22:06:25.123Z,16.33
2022-11-28T22:08:53.070Z,15.97
2022-11-28T22:11:21.062Z,15.20
2022-11-28T22:13:48.962Z,13.23
2022-11-28T22:16:18.593Z,13.27
2022-11-28T22:18:45.844Z,13.93
2022-11-28T22:21:49.832Z,18.17
2022-11-28T22:23:59.243Z,17.10
2022-11-28T22:26:25.624Z,17.90
2022-11-28T22:28:53.930Z,17.97
2022-11-28T22:31:21.166Z,16.00
2022-11-28T22:33:49.351Z,18.60
2022-11-28T22:36:18.575Z,18.40
2022-11-28T22:38:47.421Z,18.83
2022-11-28T22:41:16.586Z,18.37
2022-11-28T22:43:43.807Z,18.73
2022-11-28T22:46:11.265Z,18.80
2022-11-28T22:48:38.922Z,19.97
2022-11-28T22:51:17.436Z,21.67
2022-11-28T22:53:44.392Z,19.30
2022-11-28T22:56:13.928Z,21.30
2022-11-28T22:58:45.154Z,22.13
2022-11-28T23:01:22.835Z,20.40
2022-11-28T23:03:49.662Z,19.87
2022-11-28T23:06:19.141Z,20.23
2022-11-28T23:08:46.217Z,22.27
2022-11-28T23:11:22.147Z,19.43
2022-11-28T23:13:49.879Z,21.43
2022-11-28T23:16:25.283Z,20.57
2022-11-28T23:18:54.418Z,17.23
2022-11-28T23:21:22.550Z,18.80
2022-11-28T23:23:49.058Z,17.97
2022-11-28T23:26:21.224Z,19.17
2022-11-28T23:28:49.778Z,16.60
2022-11-28T23:31:20.296Z,16.77
2022-11-28T23:33:47.252Z,15.80
2022-11-28T23:36:14.693Z,16.63
2022-11-28T23:38:41.500Z,16.03
2022-11-28T23:41:08.199Z,16.03
2022-11-28T23:43:34.658Z,14.67
2022-11-28T23:46:01.239Z,14.40
2022-11-28T23:48:27.643Z,15.00
2022-11-28T23:50:54.169Z,15.07
2022-11-28T23:53:20.595Z,14.50
2022-11-28T23:55:47.050Z,14.57
2022-11-28T23:58:14.853Z,14.50
